Aviation Digital Data Service (ADDS)

Output produced by METARs form (0809 UTC 24 May 2018)
found at http://www.aviationweather.gov/adds/metars/
 
RKSG 240756Z 36010KT 10SM CLR 25/09 A2979 RMK AO2A SLP091 WND DATA ESTMD T02480087 $
TAF AMD RKSG 240743Z 2407/2510 33012G18KT 9999 SKC 510103 QNH2974INS 
     BECMG 2410/2411 23009KT 9999 SKC QNH2974INS TX26/2505Z TN09/2420Z
       
RKTU 240800Z 23010G20KT CAVOK 25/10 Q1008 NOSIG
TAF RKTU 240500Z 2406/2512 24006G16KT 9999 SCT030 TN12/2421Z TX27/2506Z 
     BECMG 2409/2410 24006KT 
     BECMG 2417/2418 4800 BR 
     BECMG 2500/2501 9999 NSW
       
RKTN 240800Z 28008KT CAVOK 29/06 Q1006 NOSIG
TAF RKTN 240500Z 2406/2512 31010KT CAVOK TX31/2406Z TN13/2421Z
       
RKPK 240800Z 21011KT CAVOK 26/13 Q1008 NOSIG
TAF RKPK 240500Z 2406/2512 18008KT 9999 SCT030 SCT200 TN16/2418Z TX26/2506Z 
     BECMG 2411/2412 33006KT 
     BECMG 2501/2502 18008KT
       
RKSS 240800Z 24007KT 200V280 CAVOK 22/07 Q1009 NOSIG
TAF RKSS 240500Z 2406/2512 24015G25KT CAVOK TN14/2421Z TX25/2506Z 
     BECMG 2410/2411 24010KT 
     BECMG 2414/2415 16006KT 
     BECMG 2501/2502 25007KT 
     BECMG 2511/2512 18005KT
       
RKSI 240800Z 22011KT CAVOK 19/07 Q1009 NOSIG
TAF RKSI 240500Z 2406/2512 23012KT CAVOK TN12/2422Z TX22/2505Z 
     BECMG 2413/2414 17007KT 
     BECMG 2501/2502 25010KT 
     BECMG 2510/2511 33006KT
       
RKPC 240800Z 34002KT CAVOK 22/01 Q1010 NOSIG
TAF RKPC 240500Z 2406/2512 32005KT 9999 FEW030 BKN180 TN14/2421Z TX21/2506Z 
     BECMG 2410/2411 19005KT 
     BECMG 2500/2501 36006KT 
     BECMG 2510/2511 06007KT 4200 -RA FEW010 BKN025 OVC100
       
RKJK 240756Z AUTO 21015KT 10SM FEW170 22/03 A2983 RMK AO2 SLP106 T02220028 $
TAF RKJK 240700Z 2407/2513 21009KT 9999 FEW250 QNH2981INS 
     TEMPO 2407/2410 21012G18KT 
     BECMG 2412/2413 VRB06KT 9999 FEW250 QNH2977INS TX24/2506Z TN11/2421Z
       
RKSO 240759Z 25010KT 7SM SCT200 24/08 A2979 RMK AO2A SLP091 $
TAF RKSO 240300Z 2403/2509 23012G18KT 9999 SKC QNH2974INS 
     BECMG 2410/2411 23009KT 9999 SKC QNH2974INS TX24/2405Z TN09/2420Z
       
RKSM 240700Z 22007KT 9999 SKC 26/11 A2980
TAF RKSM 240500Z 2406/2512 21005G15KT 9999 SCT030 WND 21006KT AFT 2409 TX26/2406Z TN12/2421Z
       
RKNY 240800Z 24018G29KT 210V270 CAVOK 26/10 Q1002 WS ALL RWY NOSIG
TAF RKNY 240500Z 2406/2512 25022G35KT CAVOK TN20/2421Z TX27/2505Z 
     BECMG 2418/2419 25015G25KT 
     BECMG 2502/2503 26010KT